createdAt,value
2017-04-18T00:00:54.413Z,0
2017-04-18T00:01:54.464Z,0
2017-04-18T00:02:54.519Z,0
2017-04-18T00:03:54.615Z,0
2017-04-18T00:04:54.656Z,0
2017-04-18T00:05:54.674Z,0
2017-04-18T00:06:54.720Z,0
2017-04-18T00:07:54.774Z,0
2017-04-18T00:08:54.827Z,0
2017-04-18T00:09:54.881Z,0
2017-04-18T00:10:54.630Z,0
2017-04-18T00:11:55.180Z,0
2017-04-18T00:12:55.236Z,0
2017-04-18T00:13:55.168Z,0
2017-04-18T00:14:55.136Z,0
2017-04-18T00:15:55.421Z,0
2017-04-18T00:16:55.449Z,0
2017-04-18T00:17:55.290Z,0
2017-04-18T00:18:55.352Z,0
2017-04-18T00:19:54.975Z,0
2017-04-18T00:20:55.653Z,0
2017-04-18T00:21:55.494Z,0
2017-04-18T00:22:55.543Z,0
2017-04-18T00:23:55.594Z,0
2017-04-18T00:24:55.646Z,0
2017-04-18T00:25:55.699Z,0
2017-04-18T00:26:55.750Z,0
2017-04-18T00:27:55.806Z,0
2017-04-18T00:28:55.848Z,0
2017-04-18T00:29:55.906Z,0
2017-04-18T00:30:55.951Z,0
2017-04-18T00:31:56.009Z,0
2017-04-18T00:32:56.063Z,0
2017-04-18T00:33:56.107Z,0
2017-04-18T00:34:56.161Z,0
2017-04-18T00:35:56.212Z,0
2017-04-18T00:36:56.259Z,0
2017-04-18T00:37:56.313Z,0
2017-04-18T00:38:56.367Z,0
2017-04-18T00:39:56.416Z,0
2017-04-18T00:40:56.468Z,0
2017-04-18T00:41:56.519Z,0
2017-04-18T00:42:56.565Z,0
2017-04-18T00:43:56.619Z,0
2017-04-18T00:44:56.667Z,0
2017-04-18T00:45:56.722Z,0
2017-04-18T00:46:56.800Z,0
2017-04-18T00:47:57.037Z,0
2017-04-18T00:49:10.351Z,0
2017-04-18T00:49:56.922Z,0
2017-04-18T00:50:56.980Z,0
2017-04-18T00:51:57.026Z,0
2017-04-18T00:52:57.082Z,0
2017-04-18T00:53:57.170Z,0
2017-04-18T00:54:57.193Z,0
2017-04-18T00:55:57.235Z,0
2017-04-18T00:56:57.281Z,0
2017-04-18T00:57:57.035Z,0
2017-04-18T00:58:57.085Z,0
2017-04-18T00:59:57.441Z,0
2017-04-18T01:00:57.489Z,0
2017-04-18T01:01:57.545Z,0
2017-04-18T01:02:57.600Z,0
2017-04-18T01:03:57.648Z,0
2017-04-18T01:04:57.699Z,0
2017-04-18T01:05:57.951Z,0
2017-04-18T01:06:57.796Z,0
2017-04-18T01:07:57.855Z,0
2017-04-18T01:08:57.902Z,0
2017-04-18T01:09:57.958Z,0
2017-04-18T01:10:58.007Z,0
2017-04-18T01:11:58.258Z,0
2017-04-18T01:12:57.808Z,0
2017-04-18T01:13:58.233Z,0
2017-04-18T01:14:58.212Z,0
2017-04-18T01:15:58.460Z,0
2017-04-18T01:16:58.311Z,0
2017-04-18T01:17:58.367Z,0
2017-04-18T01:18:58.419Z,0
2017-04-18T01:19:58.470Z,0
2017-04-18T01:20:58.514Z,0
2017-04-18T01:21:58.566Z,0
2017-04-18T01:22:58.619Z,0
2017-04-18T01:23:58.674Z,0
2017-04-18T01:24:58.724Z,0
2017-04-18T01:25:58.777Z,0
2017-04-18T01:26:58.829Z,0
2017-04-18T01:27:58.574Z,0
2017-04-18T01:28:58.929Z,0
2017-04-18T01:29:58.977Z,0
2017-04-18T01:30:59.059Z,0
2017-04-18T01:31:59.081Z,0
2017-04-18T01:32:59.129Z,0
2017-04-18T01:33:59.182Z,0
2017-04-18T01:34:59.235Z,0
2017-04-18T01:35:59.289Z,0
2017-04-18T01:36:59.337Z,0
2017-04-18T01:37:59.389Z,0
2017-04-18T01:38:59.441Z,0
2017-04-18T01:39:59.491Z,0
2017-04-18T01:40:59.544Z,0
2017-04-18T01:41:59.590Z,0
2017-04-18T01:42:59.644Z,0
2017-04-18T01:43:59.697Z,0
2017-04-18T01:44:59.749Z,0
2017-04-18T01:45:59.795Z,0
2017-04-18T01:46:59.851Z,0
2017-04-18T01:48:00.109Z,0
2017-04-18T01:48:59.950Z,0
2017-04-18T01:50:00.001Z,0
2017-04-18T01:51:13.446Z,0
2017-04-18T01:52:00.313Z,0
2017-04-18T01:53:00.156Z,0
2017-04-18T01:54:00.234Z,0
2017-04-18T01:55:00.257Z,0
2017-04-18T01:56:00.311Z,0
2017-04-18T01:57:00.359Z,0
2017-04-18T01:58:00.416Z,0
2017-04-18T01:59:00.462Z,0
2017-04-18T02:00:00.511Z,0
2017-04-18T02:01:00.564Z,0
2017-04-18T02:02:00.614Z,0
2017-04-18T02:03:00.667Z,0
2017-04-18T02:04:00.720Z,0
2017-04-18T02:05:00.769Z,0
2017-04-18T02:06:00.819Z,0
2017-04-18T02:07:00.866Z,0
2017-04-18T02:08:00.922Z,0
2017-04-18T02:09:00.975Z,0
2017-04-18T02:10:01.039Z,0
2017-04-18T02:11:01.086Z,0
2017-04-18T02:12:01.142Z,0
2017-04-18T02:13:01.361Z,0
2017-04-18T02:14:01.238Z,0
2017-04-18T02:15:01.295Z,0
2017-04-18T02:16:01.331Z,0
2017-04-18T02:17:01.392Z,0
2017-04-18T02:18:01.438Z,0
2017-04-18T02:19:01.497Z,0
2017-04-18T02:20:01.540Z,0
2017-04-18T02:21:01.586Z,0
2017-04-18T02:22:01.636Z,0
2017-04-18T02:23:01.689Z,0
2017-04-18T02:24:01.741Z,0
2017-04-18T02:25:01.795Z,0
2017-04-18T02:26:01.839Z,0
2017-04-18T02:27:01.895Z,0
2017-04-18T02:28:01.945Z,0
2017-04-18T02:29:01.999Z,0
2017-04-18T02:30:02.161Z,0
2017-04-18T02:31:02.108Z,0
2017-04-18T02:32:02.150Z,0
2017-04-18T02:33:02.202Z,0
2017-04-18T02:34:02.248Z,0
2017-04-18T02:35:02.305Z,0
2017-04-18T02:36:02.355Z,0
2017-04-18T02:37:02.405Z,0
2017-04-18T02:38:02.460Z,0
2017-04-18T02:39:02.207Z,0
2017-04-18T02:40:02.558Z,0
2017-04-18T02:41:02.604Z,0
2017-04-18T02:42:02.657Z,0
2017-04-18T02:43:02.713Z,0
2017-04-18T02:44:02.764Z,0
2017-04-18T02:45:02.815Z,0
2017-04-18T02:46:02.870Z,0
2017-04-18T02:47:02.919Z,0
2017-04-18T02:48:02.973Z,0
2017-04-18T02:49:03.021Z,0
2017-04-18T02:50:03.073Z,0
2017-04-18T02:51:03.121Z,0
2017-04-18T02:52:03.178Z,0
2017-04-18T02:53:03.227Z,0
2017-04-18T02:54:03.277Z,0
2017-04-18T02:55:03.336Z,0
2017-04-18T02:56:03.387Z,0
2017-04-18T02:57:03.438Z,0
2017-04-18T02:58:03.498Z,0
2017-04-18T02:59:03.545Z,0
2017-04-18T03:00:03.601Z,0
2017-04-18T03:01:03.642Z,0
2017-04-18T03:02:03.688Z,0
2017-04-18T03:03:04.278Z,0
2017-04-18T03:04:03.794Z,0
2017-04-18T03:05:03.849Z,0
2017-04-18T03:06:03.901Z,0
2017-04-18T03:07:03.945Z,0
2017-04-18T03:08:03.999Z,0
2017-04-18T03:09:04.051Z,0
2017-04-18T03:10:04.103Z,0
2017-04-18T03:11:04.155Z,0
2017-04-18T03:12:04.209Z,0
2017-04-18T03:13:04.256Z,0
2017-04-18T03:14:04.307Z,0
2017-04-18T03:15:04.357Z,0
2017-04-18T03:16:04.407Z,0
2017-04-18T03:17:04.457Z,0
2017-04-18T03:18:04.514Z,0
2017-04-18T03:19:04.570Z,0
2017-04-18T03:20:04.624Z,0
2017-04-18T03:21:04.668Z,0
2017-04-18T03:22:04.718Z,0
2017-04-18T03:23:04.770Z,0
2017-04-18T03:24:04.822Z,0
2017-04-18T03:25:04.871Z,0
2017-04-18T03:26:04.923Z,0
2017-04-18T03:27:04.980Z,0
2017-04-18T03:28:04.724Z,0
2017-04-18T03:29:05.078Z,0
2017-04-18T03:30:04.827Z,0
2017-04-18T03:31:05.177Z,0
2017-04-18T03:32:04.927Z,0
2017-04-18T03:33:05.283Z,0
2017-04-18T03:34:05.333Z,0
2017-04-18T03:35:05.385Z,0
2017-04-18T03:36:05.653Z,0
2017-04-18T03:37:05.487Z,0
2017-04-18T03:38:05.547Z,0
2017-04-18T03:39:05.587Z,0
2017-04-18T03:40:05.640Z,0
2017-04-18T03:41:05.693Z,0
2017-04-18T03:42:05.743Z,0
2017-04-18T03:43:05.794Z,0
2017-04-18T03:44:05.926Z,0
2017-04-18T03:45:06.095Z,0
2017-04-18T03:46:05.951Z,0
2017-04-18T03:47:05.696Z,0
2017-04-18T03:48:06.053Z,0
2017-04-18T03:49:06.100Z,0
2017-04-18T03:50:05.849Z,0
2017-04-18T03:51:06.203Z,0
2017-04-18T03:52:06.252Z,0
2017-04-18T03:53:06.304Z,0
2017-04-18T03:54:06.360Z,0
2017-04-18T03:55:06.412Z,0
2017-04-18T03:56:06.461Z,0
2017-04-18T03:57:06.511Z,0
2017-04-18T03:58:06.559Z,0
2017-04-18T03:59:06.619Z,0
2017-04-18T04:00:06.665Z,0
2017-04-18T04:01:06.747Z,0
2017-04-18T04:02:06.772Z,0
2017-04-18T04:03:06.825Z,0
2017-04-18T04:04:06.877Z,0
2017-04-18T04:05:06.939Z,0
2017-04-18T04:06:06.978Z,0
2017-04-18T04:07:07.027Z,0
2017-04-18T04:08:07.080Z,0
2017-04-18T04:09:07.129Z,0
2017-04-18T04:10:07.188Z,0
2017-04-18T04:11:06.928Z,0
2017-04-18T04:12:07.280Z,0
2017-04-18T04:13:07.337Z,4
2017-04-18T04:14:07.385Z,4
2017-04-18T04:15:07.435Z,4
2017-04-18T04:16:07.491Z,4
2017-04-18T04:17:07.537Z,4
2017-04-18T04:18:07.589Z,4
2017-04-18T04:19:07.703Z,4
2017-04-18T04:20:07.696Z,4
2017-04-18T04:21:07.745Z,4
2017-04-18T04:22:07.797Z,8
2017-04-18T04:23:07.876Z,8
2017-04-18T04:24:07.906Z,8
2017-04-18T04:25:07.951Z,8
2017-04-18T04:26:08.002Z,8
2017-04-18T04:27:07.790Z,8
2017-04-18T04:28:08.106Z,12
2017-04-18T04:29:08.162Z,12
2017-04-18T04:30:08.207Z,16
2017-04-18T04:31:08.261Z,12
2017-04-18T04:32:08.012Z,12
2017-04-18T04:33:08.358Z,16
2017-04-18T04:34:08.416Z,16
2017-04-18T04:35:08.604Z,16
2017-04-18T04:36:08.514Z,20
2017-04-18T04:37:08.569Z,24
2017-04-18T04:38:08.617Z,24
2017-04-18T04:39:08.673Z,24
2017-04-18T04:40:08.720Z,20
2017-04-18T04:41:08.773Z,24
2017-04-18T04:42:08.823Z,24
2017-04-18T04:43:08.873Z,28
2017-04-18T04:44:08.927Z,28
2017-04-18T04:45:08.980Z,28
2017-04-18T04:46:09.025Z,32
2017-04-18T04:47:09.082Z,32
2017-04-18T04:48:09.137Z,32
2017-04-18T04:49:09.183Z,32
2017-04-18T04:50:08.930Z,36
2017-04-18T04:51:09.397Z,36
2017-04-18T04:52:09.036Z,40
2017-04-18T04:53:09.389Z,44
2017-04-18T04:54:09.440Z,44
2017-04-18T04:55:09.492Z,40
2017-04-18T04:56:09.543Z,44
2017-04-18T04:57:09.603Z,48
2017-04-18T04:58:09.653Z,48
2017-04-18T04:59:09.769Z,48
2017-04-18T05:00:09.756Z,52
2017-04-18T05:01:09.801Z,56
2017-04-18T05:02:09.854Z,56
2017-04-18T05:03:09.603Z,52
2017-04-18T05:04:09.954Z,48
2017-04-18T05:05:10.005Z,48
2017-04-18T05:06:10.057Z,48
2017-04-18T05:07:10.169Z,44
2017-04-18T05:08:10.157Z,44
2017-04-18T05:09:10.216Z,44
2017-04-18T05:10:09.960Z,48
2017-04-18T05:11:10.315Z,52
2017-04-18T05:12:10.065Z,52
2017-04-18T05:13:10.419Z,56
2017-04-18T05:14:10.163Z,64
2017-04-18T05:15:10.518Z,68
2017-04-18T05:16:10.267Z,68
2017-04-18T05:17:10.620Z,64
2017-04-18T05:18:10.675Z,64
2017-04-18T05:19:10.423Z,64
2017-04-18T05:20:10.777Z,68
2017-04-18T05:21:10.825Z,76
2017-04-18T05:22:10.875Z,80
2017-04-18T05:23:11.057Z,80
2017-04-18T05:24:10.996Z,84
2017-04-18T05:25:10.729Z,80
2017-04-18T05:26:11.078Z,88
2017-04-18T05:27:11.131Z,88
2017-04-18T05:28:10.881Z,92
2017-04-18T05:29:11.246Z,92
2017-04-18T05:30:10.986Z,96
2017-04-18T05:31:11.040Z,96
2017-04-18T05:32:11.387Z,96
2017-04-18T05:33:11.442Z,96
2017-04-18T05:34:11.496Z,96
2017-04-18T05:35:11.545Z,92
2017-04-18T05:36:11.592Z,92
2017-04-18T05:37:11.645Z,92
2017-04-18T05:38:11.703Z,92
2017-04-18T05:39:11.800Z,96
2017-04-18T05:40:11.798Z,100
2017-04-18T05:41:11.847Z,104
2017-04-18T05:42:11.900Z,104
2017-04-18T05:43:11.953Z,108
2017-04-18T05:44:12.005Z,108
2017-04-18T05:45:12.052Z,112
2017-04-18T05:46:12.103Z,116
2017-04-18T05:47:12.155Z,124
2017-04-18T05:48:11.903Z,132
2017-04-18T05:49:12.265Z,136
2017-04-18T05:50:12.308Z,148
2017-04-18T05:51:12.362Z,160
2017-04-18T05:52:12.412Z,156
2017-04-18T05:53:12.475Z,152
2017-04-18T05:54:12.534Z,156
2017-04-18T05:55:12.567Z,156
2017-04-18T05:56:12.618Z,152
2017-04-18T05:57:12.679Z,156
2017-04-18T05:58:12.723Z,152
2017-04-18T05:59:12.770Z,160
2017-04-18T06:00:12.819Z,160
2017-04-18T06:01:12.872Z,156
2017-04-18T06:02:12.927Z,152
2017-04-18T06:03:12.976Z,144
2017-04-18T06:04:13.029Z,144
2017-04-18T06:05:13.080Z,148
2017-04-18T06:06:13.133Z,152
2017-04-18T06:07:13.181Z,152
2017-04-18T06:08:13.234Z,156
2017-04-18T06:09:12.981Z,164
2017-04-18T06:10:13.638Z,172
2017-04-18T06:11:13.387Z,172
2017-04-18T06:12:13.438Z,176
2017-04-18T06:13:13.489Z,180
2017-04-18T06:14:13.541Z,192
2017-04-18T06:15:13.593Z,200
2017-04-18T06:16:13.642Z,212
2017-04-18T06:17:13.693Z,220
2017-04-18T06:18:13.750Z,220
2017-04-18T06:19:13.802Z,216
2017-04-18T06:20:13.847Z,216
2017-04-18T06:21:13.902Z,224
2017-04-18T06:22:13.988Z,220
2017-04-18T06:23:14.009Z,220
2017-04-18T06:24:14.055Z,228
2017-04-18T06:25:14.236Z,236
2017-04-18T06:26:14.158Z,236
2017-04-18T06:27:14.209Z,244
2017-04-18T06:28:14.262Z,248
2017-04-18T06:29:14.314Z,260
2017-04-18T06:30:14.362Z,276
2017-04-18T06:31:14.417Z,292
2017-04-18T06:32:14.464Z,304
2017-04-18T06:33:14.542Z,312
2017-04-18T06:34:14.576Z,312
2017-04-18T06:35:14.626Z,320
2017-04-18T06:36:14.673Z,316
2017-04-18T06:37:14.420Z,312
2017-04-18T06:38:14.774Z,304
2017-04-18T06:39:14.830Z,308
2017-04-18T06:40:14.880Z,320
2017-04-18T06:41:14.925Z,320
2017-04-18T06:42:14.983Z,312
2017-04-18T06:43:15.031Z,304
2017-04-18T06:44:15.087Z,296
2017-04-18T06:45:15.136Z,296
2017-04-18T06:46:15.186Z,292
2017-04-18T06:47:15.237Z,304
2017-04-18T06:48:14.692Z,316
2017-04-18T06:49:15.471Z,320
2017-04-18T06:50:15.393Z,316
2017-04-18T06:51:15.445Z,316
2017-04-18T06:52:14.894Z,332
2017-04-18T06:53:15.551Z,344
2017-04-18T06:59:31.785Z,368
2017-04-18T07:00:31.833Z,360
2017-04-18T07:01:32.180Z,352
2017-04-18T07:02:31.630Z,352
2017-04-18T07:03:32.287Z,356
2017-04-18T07:04:32.334Z,360
2017-04-18T07:05:32.387Z,356
2017-04-18T07:06:32.442Z,352
2017-04-18T07:07:31.888Z,344
2017-04-18T07:08:32.546Z,328
2017-04-18T07:09:32.595Z,308
2017-04-18T07:10:32.652Z,300
2017-04-18T07:11:32.096Z,312
2017-04-18T07:12:32.472Z,324
2017-04-18T07:13:32.813Z,332
2017-04-18T07:14:32.860Z,324
2017-04-18T07:15:32.911Z,304
2017-04-18T07:16:33.120Z,300
2017-04-18T07:17:33.017Z,296
2017-04-18T07:18:32.760Z,300
2017-04-18T07:19:33.115Z,320
2017-04-18T07:20:33.163Z,332
2017-04-18T07:21:32.919Z,324
2017-04-18T07:22:32.969Z,340
2017-04-18T07:23:33.020Z,352
2017-04-18T07:24:33.373Z,360
2017-04-18T07:25:33.427Z,372
2017-04-18T07:26:33.471Z,372
2017-04-18T07:27:33.526Z,356
2017-04-18T07:28:33.584Z,348
2017-04-18T07:29:33.331Z,340
2017-04-18T07:30:33.682Z,340
2017-04-18T07:31:33.433Z,364
2017-04-18T07:32:33.204Z,392
2017-04-18T07:33:33.235Z,432
2017-04-18T07:34:33.281Z,468
2017-04-18T07:35:33.338Z,508
2017-04-18T07:36:33.998Z,540
2017-04-18T07:37:34.044Z,524
2017-04-18T07:38:33.796Z,504
2017-04-18T07:39:34.144Z,476
2017-04-18T07:40:33.897Z,464
2017-04-18T07:41:33.649Z,452
2017-04-18T07:42:33.703Z,492
2017-04-18T07:43:34.061Z,532
2017-04-18T07:44:33.820Z,552
2017-04-18T07:45:33.853Z,488
2017-04-18T07:46:34.215Z,460
2017-04-18T07:47:34.264Z,456
2017-04-18T07:48:34.312Z,444
2017-04-18T07:49:34.595Z,476
2017-04-18T07:50:34.415Z,432
2017-04-18T07:51:34.166Z,424
2017-04-18T07:52:34.527Z,428
2017-04-18T07:53:34.282Z,448
2017-04-18T07:54:34.639Z,492
2017-04-18T07:55:34.690Z,528
2017-04-18T07:56:34.423Z,476
2017-04-18T07:57:34.798Z,468
2017-04-18T07:58:34.836Z,548
2017-04-18T07:59:34.883Z,628
2017-04-18T08:00:35.239Z,664
2017-04-18T08:01:34.684Z,632
2017-04-18T08:02:35.350Z,620
2017-04-18T08:03:35.394Z,612
2017-04-18T08:04:35.445Z,648
2017-04-18T08:05:35.197Z,772
2017-04-18T08:06:35.552Z,700
2017-04-18T08:07:35.601Z,692
2017-04-18T08:08:35.659Z,680
2017-04-18T08:09:35.406Z,656
2017-04-18T08:10:35.454Z,592
2017-04-18T08:11:35.806Z,556
2017-04-18T08:12:35.589Z,548
2017-04-18T08:13:35.608Z,524
2017-04-18T08:14:35.967Z,544
2017-04-18T08:15:36.020Z,528
2017-04-18T08:16:36.070Z,644
2017-04-18T08:17:36.127Z,700
2017-04-18T08:18:36.192Z,688
2017-04-18T08:19:36.230Z,664
2017-04-18T08:20:36.278Z,660
2017-04-18T08:21:36.329Z,640
2017-04-18T08:22:36.384Z,652
2017-04-18T08:23:36.443Z,592
2017-04-18T08:24:35.882Z,592
2017-04-18T08:25:36.540Z,560
2017-04-18T08:26:36.293Z,592
2017-04-18T08:27:36.340Z,648
2017-04-18T08:28:36.696Z,656
2017-04-18T08:29:36.747Z,728
2017-04-18T08:30:36.496Z,668
2017-04-18T08:31:36.855Z,756
2017-04-18T08:32:36.914Z,816
2017-04-18T08:33:36.960Z,820
2017-04-18T08:34:36.781Z,788
2017-04-18T08:35:37.061Z,648
2017-04-18T08:36:37.111Z,596
2017-04-18T08:37:36.865Z,876
2017-04-18T08:38:37.218Z,1064
2017-04-18T08:39:37.269Z,1092
2017-04-18T08:40:37.019Z,1168
2017-04-18T08:41:37.380Z,1084
2017-04-18T08:42:37.427Z,1012
2017-04-18T08:43:37.478Z,980
2017-04-18T08:44:37.530Z,948
2017-04-18T08:45:37.282Z,864
2017-04-18T08:46:37.634Z,800
2017-04-18T08:47:37.386Z,788
2017-04-18T08:48:37.738Z,832
2017-04-18T08:49:37.794Z,892
2017-04-18T08:50:37.843Z,916
2017-04-18T08:51:37.894Z,888
2017-04-18T08:52:37.705Z,836
2017-04-18T08:53:37.707Z,800
2017-04-18T08:54:37.450Z,784
2017-04-18T08:55:37.812Z,784
2017-04-18T08:56:37.553Z,740
2017-04-18T08:57:37.603Z,696
2017-04-18T08:58:37.967Z,748
2017-04-18T08:59:38.315Z,752
2017-04-18T09:00:38.373Z,848
2017-04-18T09:01:38.478Z,808
2017-04-18T09:02:38.175Z,804
2017-04-18T09:03:38.225Z,828
2017-04-18T09:04:38.276Z,776
2017-04-18T09:05:38.629Z,816
2017-04-18T09:06:38.683Z,872
2017-04-18T09:07:38.434Z,844
2017-04-18T09:08:38.184Z,844
2017-04-18T09:09:38.841Z,796
2017-04-18T09:10:38.917Z,812
2017-04-18T09:11:38.642Z,776
2017-04-18T09:12:38.697Z,780
2017-04-18T09:13:39.047Z,768
2017-04-18T09:14:39.109Z,732
2017-04-18T09:15:39.157Z,712
2017-04-18T09:16:39.209Z,692
2017-04-18T09:17:39.260Z,768
2017-04-18T09:18:39.314Z,740
2017-04-18T09:19:39.580Z,768
2017-04-18T09:20:39.418Z,760
2017-04-18T09:21:39.472Z,732
2017-04-18T09:22:39.223Z,892
2017-04-18T09:23:39.578Z,832
2017-04-18T09:24:39.328Z,772
2017-04-18T09:25:39.681Z,768
2017-04-18T09:26:39.734Z,760
2017-04-18T09:27:39.482Z,808
2017-04-18T09:28:39.541Z,920
2017-04-18T09:29:39.890Z,916
2017-04-18T09:30:39.646Z,880
2017-04-18T09:31:40.000Z,920
2017-04-18T09:32:40.051Z,904
2017-04-18T09:33:40.108Z,1096
2017-04-18T09:34:39.855Z,1132
2017-04-18T09:35:40.208Z,1192
2017-04-18T09:36:40.264Z,1124
2017-04-18T09:37:40.488Z,1172
2017-04-18T09:38:40.066Z,1300
2017-04-18T09:39:40.419Z,1392
2017-04-18T09:40:40.168Z,1344
2017-04-18T09:41:40.222Z,1408
2017-04-18T09:42:40.581Z,1332
2017-04-18T09:43:40.636Z,1308
2017-04-18T09:44:40.684Z,1292
2017-04-18T09:45:40.732Z,1224
2017-04-18T09:46:40.704Z,1120
2017-04-18T09:47:40.840Z,1156
2017-04-18T09:48:40.591Z,1260
2017-04-18T09:49:40.948Z,1128
2017-04-18T09:50:41.006Z,984
2017-04-18T09:51:41.051Z,980
2017-04-18T09:52:41.109Z,996
2017-04-18T09:53:41.161Z,1040
2017-04-18T09:54:41.212Z,1172
2017-04-18T09:55:41.098Z,1088
2017-04-18T09:56:41.336Z,1300
2017-04-18T09:57:41.373Z,1540
2017-04-18T09:58:41.426Z,1356
2017-04-18T09:59:41.501Z,1324
2017-04-18T10:00:41.525Z,1272
2017-04-18T10:01:41.581Z,1148
2017-04-18T10:02:41.640Z,1432
2017-04-18T10:03:41.690Z,1868
2017-04-18T10:04:41.741Z,1704
2017-04-18T10:05:41.193Z,1572
2017-04-18T10:06:41.849Z,1548
2017-04-18T10:07:41.900Z,1436
2017-04-18T10:08:41.653Z,1436
2017-04-18T10:09:41.705Z,1352
2017-04-18T10:10:41.757Z,1308
2017-04-18T10:11:42.114Z,1288
2017-04-18T10:12:42.165Z,1268
2017-04-18T10:13:42.438Z,1280
2017-04-18T10:14:42.273Z,1300
2017-04-18T10:15:42.327Z,1328
2017-04-18T10:16:42.374Z,1364
2017-04-18T10:17:42.533Z,1420
2017-04-18T10:18:42.484Z,1396
2017-04-18T10:19:42.237Z,1300
2017-04-18T10:20:42.584Z,1240
2017-04-18T10:21:42.641Z,1192
2017-04-18T10:22:42.805Z,1156
2017-04-18T10:23:42.749Z,1152
2017-04-18T10:24:42.498Z,1136
2017-04-18T10:25:42.852Z,1160
2017-04-18T10:26:42.906Z,1160
2017-04-18T10:27:42.656Z,1012
2017-04-18T10:28:43.016Z,868
2017-04-18T10:29:43.069Z,844
2017-04-18T10:30:43.121Z,1068
2017-04-18T10:31:42.867Z,1168
2017-04-18T10:32:43.226Z,1184
2017-04-18T10:33:43.277Z,1376
2017-04-18T10:34:43.330Z,1364
2017-04-18T10:35:43.083Z,1504
2017-04-18T10:36:43.438Z,1368
2017-04-18T10:37:43.488Z,1448
2017-04-18T10:38:43.575Z,1480
2017-04-18T10:39:43.858Z,1440
2017-04-18T10:40:43.651Z,1384
2017-04-18T10:41:43.704Z,1340
2017-04-18T10:42:43.761Z,1376
2017-04-18T10:43:43.810Z,1520
2017-04-18T10:44:43.868Z,1512
2017-04-18T10:45:43.618Z,1496
2017-04-18T10:46:43.667Z,1476
2017-04-18T10:47:44.035Z,1448
2017-04-18T10:48:43.832Z,1396
2017-04-18T10:49:44.129Z,1352
2017-04-18T10:50:44.184Z,1356
2017-04-18T10:51:43.933Z,1356
2017-04-18T10:52:43.990Z,1328
2017-04-18T10:53:44.350Z,1284
2017-04-18T10:54:44.396Z,1256
2017-04-18T10:55:44.447Z,1248
2017-04-18T10:56:44.498Z,1320
2017-04-18T10:57:44.256Z,1372
2017-04-18T10:58:44.607Z,1388
2017-04-18T10:59:44.662Z,1416
2017-04-18T11:00:44.719Z,1424
2017-04-18T11:01:44.772Z,1448
2017-04-18T11:02:44.523Z,1444
2017-04-18T11:03:44.578Z,1436
2017-04-18T11:04:44.930Z,1536
2017-04-18T11:05:44.678Z,1644
2017-04-18T11:06:45.040Z,1540
2017-04-18T11:07:45.091Z,1672
2017-04-18T11:08:44.837Z,1812
2017-04-18T11:09:44.893Z,1836
2017-04-18T11:10:45.251Z,1904
2017-04-18T11:11:45.306Z,1884
2017-04-18T11:12:45.361Z,1784
2017-04-18T11:13:45.413Z,1596
2017-04-18T11:14:45.462Z,1476
2017-04-18T11:15:45.514Z,1428
2017-04-18T11:16:44.978Z,1408
2017-04-18T11:17:45.628Z,1384
2017-04-18T11:18:45.680Z,1360
2017-04-18T11:19:45.427Z,1320
2017-04-18T11:20:45.784Z,1268
2017-04-18T11:21:45.535Z,1188
2017-04-18T11:22:45.592Z,1104
2017-04-18T11:23:45.958Z,1056
2017-04-18T11:24:45.998Z,1044
2017-04-18T11:25:46.054Z,1072
2017-04-18T11:26:46.106Z,1104
2017-04-18T11:27:45.555Z,1140
2017-04-18T11:28:45.913Z,1184
2017-04-18T11:29:46.267Z,1228
2017-04-18T11:30:46.322Z,1240
2017-04-18T11:31:46.369Z,1260
2017-04-18T11:32:46.123Z,1252
2017-04-18T11:33:46.479Z,1248
2017-04-18T11:34:46.530Z,1244
2017-04-18T11:35:46.586Z,1272
2017-04-18T11:36:46.639Z,1276
2017-04-18T11:37:46.693Z,1304
2017-04-18T11:38:46.140Z,1312
2017-04-18T11:39:46.213Z,1344
2017-04-18T11:40:47.049Z,1420
2017-04-18T11:41:46.906Z,1484
2017-04-18T11:42:46.960Z,1544
2017-04-18T11:43:46.413Z,1596
2017-04-18T11:44:46.764Z,1576
2017-04-18T11:45:46.816Z,1544
2017-04-18T11:46:47.174Z,1508
2017-04-18T11:47:47.225Z,1488
2017-04-18T11:48:46.976Z,1528
2017-04-18T11:49:47.335Z,1600
2017-04-18T11:50:47.385Z,1636
2017-04-18T11:51:47.441Z,1620
2017-04-18T11:52:47.496Z,1740
2017-04-18T11:53:47.551Z,2120
2017-04-18T11:54:47.601Z,2304
2017-04-18T11:55:47.655Z,2192
2017-04-18T11:56:47.405Z,1572
2017-04-18T11:57:47.767Z,1296
2017-04-18T11:58:47.814Z,1440
2017-04-18T11:59:47.866Z,1692
2017-04-18T12:00:47.929Z,2324
2017-04-18T12:01:47.970Z,2404
2017-04-18T12:02:48.031Z,2128
2017-04-18T12:03:48.082Z,2092
2017-04-18T12:04:48.131Z,2000
2017-04-18T12:05:48.183Z,2208
2017-04-18T12:06:48.242Z,2156
2017-04-18T12:07:48.292Z,2120
2017-04-18T12:08:48.347Z,2192
2017-04-18T12:09:48.099Z,2044
2017-04-18T12:10:48.154Z,1888
2017-04-18T12:11:48.509Z,1788
2017-04-18T12:12:48.259Z,1764
2017-04-18T12:13:48.612Z,1652
2017-04-18T12:14:48.364Z,1528
2017-04-18T12:15:48.721Z,1492
2017-04-18T12:16:48.484Z,1516
2017-04-18T12:17:48.526Z,1520
2017-04-18T12:18:48.579Z,1564
2017-04-18T12:19:48.938Z,1536
2017-04-18T12:20:48.988Z,1460
2017-04-18T12:21:49.047Z,1420
2017-04-18T12:22:48.498Z,1412
2017-04-18T12:23:49.152Z,1408
2017-04-18T12:24:49.204Z,1408
2017-04-18T12:25:49.253Z,1400
2017-04-18T12:26:49.312Z,1388
2017-04-18T12:27:49.063Z,1344
2017-04-18T12:28:49.418Z,1324
2017-04-18T12:29:49.473Z,1328
2017-04-18T12:30:49.527Z,1332
2017-04-18T12:31:49.580Z,1308
2017-04-18T12:32:49.032Z,1260
2017-04-18T12:33:49.083Z,1220
2017-04-18T12:34:49.440Z,1236
2017-04-18T12:35:49.797Z,1236
2017-04-18T12:36:49.845Z,1204
2017-04-18T12:37:49.901Z,1248
2017-04-18T12:38:49.953Z,1300
2017-04-18T12:39:49.703Z,1284
2017-04-18T12:40:50.060Z,1272
2017-04-18T12:41:50.116Z,1280
2017-04-18T12:42:50.197Z,1252
2017-04-18T12:43:50.219Z,1236
2017-04-18T12:44:50.277Z,1224
2017-04-18T12:45:50.030Z,1224
2017-04-18T12:46:50.084Z,1208
2017-04-18T12:47:50.437Z,1212
2017-04-18T12:48:50.489Z,1212
2017-04-18T12:49:50.240Z,1220
2017-04-18T12:50:50.596Z,1228
2017-04-18T12:51:50.707Z,1260
2017-04-18T12:52:50.403Z,1292
2017-04-18T12:53:50.757Z,1304
2017-04-18T12:54:50.506Z,1316
2017-04-18T12:55:50.560Z,1332
2017-04-18T12:56:50.921Z,1332
2017-04-18T12:57:50.966Z,1316
2017-04-18T12:58:51.025Z,1292
2017-04-18T12:59:51.077Z,1248
2017-04-18T13:00:51.133Z,1204
2017-04-18T13:01:50.881Z,1164
2017-04-18T13:02:51.237Z,1144
2017-04-18T13:03:51.410Z,1136
2017-04-18T13:04:51.144Z,1144
2017-04-18T13:05:51.194Z,1152
2017-04-18T13:06:51.566Z,1160
2017-04-18T13:07:51.625Z,1176
2017-04-18T13:08:51.672Z,1196
2017-04-18T13:09:51.727Z,1220
2017-04-18T13:10:51.828Z,1236
2017-04-18T13:11:51.511Z,1260
2017-04-18T13:12:51.571Z,1292
2017-04-18T13:13:51.621Z,1320
2017-04-18T13:14:51.991Z,1280
2017-04-18T13:15:52.044Z,1260
2017-04-18T13:16:51.783Z,1228
2017-04-18T13:17:52.150Z,1196
2017-04-18T13:18:51.913Z,1184
2017-04-18T13:19:52.255Z,1228
2017-04-18T13:20:52.311Z,1368
2017-04-18T13:21:52.371Z,1392
2017-04-18T13:22:52.100Z,1388
2017-04-18T13:23:51.834Z,1448
2017-04-18T13:24:52.528Z,1476
2017-04-18T13:25:52.578Z,1492
2017-04-18T13:26:52.632Z,1472
2017-04-18T13:27:52.681Z,1528
2017-04-18T13:28:52.732Z,1560
2017-04-18T13:29:52.790Z,1524
2017-04-18T13:30:52.848Z,1544
2017-04-18T13:31:52.896Z,1588
2017-04-18T13:32:52.631Z,1508
2017-04-18T13:33:52.696Z,1424
2017-04-18T13:34:53.055Z,1524
2017-04-18T13:35:53.106Z,1692
2017-04-18T13:36:53.161Z,1688
2017-04-18T13:37:53.212Z,1824
2017-04-18T13:38:53.266Z,1928
2017-04-18T13:39:53.322Z,1900
2017-04-18T13:40:53.055Z,1640
2017-04-18T13:41:53.478Z,1472
2017-04-18T13:42:53.164Z,1320
2017-04-18T13:43:52.906Z,1248
2017-04-18T13:44:53.270Z,1320
2017-04-18T13:45:53.643Z,1416
2017-04-18T13:46:53.059Z,1532
2017-04-18T13:47:53.746Z,1632
2017-04-18T13:48:53.803Z,1728
2017-04-18T13:49:53.854Z,1752
2017-04-18T13:50:53.905Z,1652
2017-04-18T13:51:53.957Z,1580
2017-04-18T13:52:53.375Z,1644
2017-04-18T13:53:53.757Z,1764
2017-04-18T13:54:53.486Z,1752
2017-04-18T13:55:53.855Z,1768
2017-04-18T13:56:53.588Z,1772
2017-04-18T13:57:54.277Z,1752
2017-04-18T13:58:54.336Z,1652
2017-04-18T13:59:54.070Z,1624
2017-04-18T14:00:54.121Z,1692
2017-04-18T14:01:54.171Z,1600
2017-04-18T14:02:53.910Z,1740
2017-04-18T14:03:54.295Z,1924